createdAt,value
2023-02-01T00:02:01.063Z,100629.88
2023-02-01T00:04:25.012Z,100637.56
2023-02-01T00:06:49.338Z,100635.50
2023-02-01T00:09:12.978Z,100635.94
2023-02-01T00:11:36.828Z,100638.88
2023-02-01T00:14:01.894Z,100641.28
2023-02-01T00:16:28.540Z,100645.47
2023-02-01T00:18:58.046Z,100637.91
2023-02-01T00:21:22.951Z,100633.03
2023-02-01T00:23:46.698Z,100636.53
2023-02-01T00:26:16.862Z,100624.72
2023-02-01T00:28:40.505Z,100619.03
2023-02-01T00:31:07.210Z,100626.16
2023-02-01T00:33:31.412Z,100632.94
2023-02-01T00:36:00.041Z,100622.31
2023-02-01T00:38:23.648Z,100639.28
2023-02-01T00:40:48.203Z,100638.00
2023-02-01T00:43:11.835Z,100641.19
2023-02-01T00:45:35.449Z,100637.28
2023-02-01T00:48:00.505Z,100640.63
2023-02-01T00:50:24.204Z,100628.31
2023-02-01T00:52:49.028Z,100643.59
2023-02-01T00:55:12.650Z,100644.84
2023-02-01T00:57:36.286Z,100650.78
2023-02-01T01:00:00.233Z,100653.09
2023-02-01T01:02:23.915Z,100653.44
2023-02-01T01:04:48.954Z,100648.06
2023-02-01T01:07:12.724Z,100646.91
2023-02-01T01:09:37.512Z,100644.00
2023-02-01T01:12:03.545Z,100652.16
2023-02-01T01:14:28.458Z,100651.41
2023-02-01T01:16:52.073Z,100653.19
2023-02-01T01:19:15.772Z,100632.94
2023-02-01T01:21:41.069Z,100642.88
2023-02-01T01:24:04.874Z,100632.94
2023-02-01T01:26:30.773Z,100625.22
2023-02-01T01:28:56.421Z,100631.53
2023-02-01T01:31:23.272Z,100618.09
2023-02-01T01:33:50.239Z,100614.50
2023-02-01T01:36:14.742Z,100611.84
2023-02-01T01:38:40.412Z,100613.50
2023-02-01T01:41:04.106Z,100610.63
2023-02-01T01:43:27.833Z,100614.31
2023-02-01T01:45:53.003Z,100617.06
2023-02-01T01:48:22.376Z,100617.69
2023-02-01T01:50:52.198Z,100620.66
2023-02-01T01:53:20.577Z,100619.72
2023-02-01T01:55:48.157Z,100609.38
2023-02-01T01:58:17.992Z,100608.72
2023-02-01T02:00:42.288Z,100620.06
2023-02-01T02:03:16.210Z,100616.28
2023-02-01T02:05:40.679Z,100625.22
2023-02-01T02:08:05.755Z,100629.88
2023-02-01T02:10:44.309Z,100626.69
2023-02-01T02:13:09.517Z,100627.38
2023-02-01T02:15:33.769Z,100622.78
2023-02-01T02:18:03.827Z,100629.78
2023-02-01T02:21:12.614Z,100613.56
2023-02-01T02:24:20.019Z,100618.78
2023-02-01T02:27:04.066Z,100608.31
2023-02-01T02:30:19.484Z,100605.63
2023-02-01T02:33:38.381Z,100614.00
2023-02-01T02:36:09.937Z,100607.50
2023-02-01T02:38:42.365Z,100606.56
2023-02-01T02:41:36.811Z,100599.63
2023-02-01T02:44:20.103Z,100610.38
2023-02-01T02:47:08.409Z,100605.16
2023-02-01T02:49:42.220Z,100599.56
2023-02-01T02:52:44.213Z,100609.25
2023-02-01T02:55:11.653Z,100617.44
2023-02-01T02:57:57.350Z,100605.25
2023-02-01T03:00:42.605Z,100594.75
2023-02-01T03:03:24.427Z,100595.78
2023-02-01T03:05:52.651Z,100594.78
2023-02-01T03:08:19.294Z,100586.06
2023-02-01T03:10:55.936Z,100586.22
2023-02-01T03:13:32.154Z,100573.31
2023-02-01T03:16:03.684Z,100579.16
2023-02-01T03:18:35.113Z,100566.50
2023-02-01T03:21:04.557Z,100563.22
2023-02-01T03:23:34.900Z,100561.72
2023-02-01T03:26:02.161Z,100564.84
2023-02-01T03:28:30.311Z,100552.88
2023-02-01T03:30:54.881Z,100550.34
2023-02-01T03:33:24.456Z,100549.56
2023-02-01T03:36:01.625Z,100546.19
2023-02-01T03:38:31.031Z,100546.84
2023-02-01T03:41:00.005Z,100539.72
2023-02-01T03:43:25.862Z,100532.47
2023-02-01T03:45:55.423Z,100540.19
2023-02-01T03:48:21.708Z,100538.88
2023-02-01T03:50:50.853Z,100531.72
2023-02-01T03:53:20.413Z,100543.44
2023-02-01T03:55:44.723Z,100531.72
2023-02-01T03:58:12.835Z,100539.31
2023-02-01T04:00:36.831Z,100535.13
2023-02-01T04:03:01.098Z,100537.13
2023-02-01T04:05:25.454Z,100544.56
2023-02-01T04:07:56.123Z,100542.94
2023-02-01T04:10:21.706Z,100542.38
2023-02-01T04:12:45.605Z,100541.91
2023-02-01T04:15:10.743Z,100544.97
2023-02-01T04:17:34.348Z,100548.84
2023-02-01T04:19:58.057Z,100553.78
2023-02-01T04:22:21.665Z,100541.44
2023-02-01T04:24:45.389Z,100553.53
2023-02-01T04:27:10.479Z,100539.72
2023-02-01T04:29:34.124Z,100542.75
2023-02-01T04:31:57.785Z,100534.59
2023-02-01T04:34:23.495Z,100533.38
2023-02-01T04:36:47.491Z,100525.81
2023-02-01T04:39:11.697Z,100530.31
2023-02-01T04:41:35.405Z,100529.09
2023-02-01T04:44:00.634Z,100529.28
2023-02-01T04:46:24.333Z,100519.84
2023-02-01T04:48:48.093Z,100515.19
2023-02-01T04:51:12.905Z,100521.34
2023-02-01T04:53:36.682Z,100512.44
2023-02-01T04:56:00.344Z,100515.91
2023-02-01T04:58:24.330Z,100511.28
2023-02-01T05:00:50.556Z,100492.41
2023-02-01T05:03:14.260Z,100499.38
2023-02-01T05:05:37.991Z,100491.94
2023-02-01T05:08:01.976Z,100493.25
2023-02-01T05:10:25.694Z,100489.75
2023-02-01T05:13:06.966Z,100483.53
2023-02-01T05:15:30.793Z,100478.50
2023-02-01T05:17:55.879Z,100496.13
2023-02-01T05:20:19.748Z,100480.47
2023-02-01T05:22:44.334Z,100485.25
2023-02-01T05:25:09.016Z,100484.56
2023-02-01T05:27:32.999Z,100479.56
2023-02-01T05:29:56.680Z,100469.28
2023-02-01T05:32:22.664Z,100466.78
2023-02-01T05:34:48.297Z,100467.69
2023-02-01T05:37:11.934Z,100473.25
2023-02-01T05:39:36.214Z,100468.97
2023-02-01T05:41:59.859Z,100466.97
2023-02-01T05:44:23.532Z,100476.28
2023-02-01T05:46:49.800Z,100466.44
2023-02-01T05:49:13.883Z,100461.16
2023-02-01T05:51:38.903Z,100461.81
2023-02-01T05:54:02.738Z,100457.25
2023-02-01T05:56:26.368Z,100453.28
2023-02-01T05:58:50.074Z,100452.56
2023-02-01T06:01:13.660Z,100452.44
2023-02-01T06:03:37.658Z,100454.13
2023-02-01T06:06:02.118Z,100449.50
2023-02-01T06:08:27.652Z,100458.97
2023-02-01T06:10:51.528Z,100442.44
2023-02-01T06:13:15.188Z,100447.19
2023-02-01T06:15:39.551Z,100449.44
2023-02-01T06:18:03.223Z,100447.06
2023-02-01T06:20:27.015Z,100449.72
2023-02-01T06:22:50.905Z,100452.81
2023-02-01T06:25:17.743Z,100455.84
2023-02-01T06:27:41.503Z,100439.44
2023-02-01T06:30:06.578Z,100448.47
2023-02-01T06:32:31.051Z,100437.84
2023-02-01T06:34:54.698Z,100430.38
2023-02-01T06:37:18.337Z,100432.75
2023-02-01T06:39:41.957Z,100425.22
2023-02-01T06:42:07.152Z,100421.78
2023-02-01T06:44:30.862Z,100419.59
2023-02-01T06:46:55.968Z,100414.16
2023-02-01T06:49:20.863Z,100413.19
2023-02-01T06:51:44.562Z,100408.94
2023-02-01T06:54:08.216Z,100412.56
2023-02-01T06:56:32.996Z,100400.97
2023-02-01T06:58:58.015Z,100411.78
2023-02-01T07:01:22.131Z,100404.69
2023-02-01T07:03:49.510Z,100401.25
2023-02-01T07:06:13.214Z,100403.97
2023-02-01T07:08:39.425Z,100402.53
2023-02-01T07:11:05.118Z,100403.13
2023-02-01T07:13:28.739Z,100401.97
2023-02-01T07:15:53.841Z,100410.97
2023-02-01T07:18:17.542Z,100392.72
2023-02-01T07:20:41.181Z,100399.47
2023-02-01T07:23:04.843Z,100399.22
2023-02-01T07:25:28.582Z,100393.31
2023-02-01T07:27:52.252Z,100391.28
2023-02-01T07:30:16.022Z,100393.03
2023-02-01T07:32:41.131Z,100378.06
2023-02-01T07:35:05.017Z,100378.56
2023-02-01T07:37:28.615Z,100376.22
2023-02-01T07:39:52.358Z,100385.63
2023-02-01T07:42:15.914Z,100372.66
2023-02-01T07:44:39.540Z,100374.75
2023-02-01T07:47:03.179Z,100380.56
2023-02-01T07:49:28.250Z,100388.97
2023-02-01T07:51:51.976Z,100380.25
2023-02-01T07:54:15.620Z,100385.34
2023-02-01T07:56:39.304Z,100390.31
2023-02-01T07:59:03.316Z,100392.91
2023-02-01T08:01:28.194Z,100388.88
2023-02-01T08:03:54.136Z,100392.97
2023-02-01T08:06:20.594Z,100382.72
2023-02-01T08:08:46.172Z,100380.81
2023-02-01T08:11:10.666Z,100398.47
2023-02-01T08:13:35.510Z,100387.06
2023-02-01T08:16:01.135Z,100405.44
2023-02-01T08:18:24.959Z,100406.00
2023-02-01T08:20:48.708Z,100396.69
2023-02-01T08:23:14.187Z,100406.69
2023-02-01T08:25:38.818Z,100409.06
2023-02-01T08:28:02.499Z,100406.88
2023-02-01T08:30:26.220Z,100405.13
2023-02-01T08:32:50.097Z,100415.41
2023-02-01T08:35:13.690Z,100411.22
2023-02-01T08:37:37.628Z,100410.88
2023-02-01T08:40:02.677Z,100411.63
2023-02-01T08:42:43.761Z,100414.94
2023-02-01T08:45:09.870Z,100418.06
2023-02-01T08:47:33.696Z,100419.03
2023-02-01T08:49:57.366Z,100421.03
2023-02-01T08:52:21.065Z,100409.25
2023-02-01T08:54:44.764Z,100420.53
2023-02-01T08:57:10.499Z,100422.63
2023-02-01T08:59:34.189Z,100420.19
2023-02-01T09:01:58.051Z,100423.50
2023-02-01T09:04:21.695Z,100422.25
2023-02-01T09:06:45.264Z,100432.16
2023-02-01T09:09:09.619Z,100427.97
2023-02-01T09:11:33.402Z,100420.94
2023-02-01T09:13:58.904Z,100425.28
2023-02-01T09:16:22.916Z,100427.00
2023-02-01T09:18:56.163Z,100428.53
2023-02-01T09:21:30.786Z,100434.97
2023-02-01T09:23:54.882Z,100441.16
2023-02-01T09:26:19.842Z,100425.94
2023-02-01T09:28:46.511Z,100444.47
2023-02-01T09:31:11.639Z,100451.72
2023-02-01T09:33:35.293Z,100447.88
2023-02-01T09:35:59.850Z,100458.84
2023-02-01T09:38:23.475Z,100463.56
2023-02-01T09:40:49.574Z,100454.25
2023-02-01T09:43:26.004Z,100456.09
2023-02-01T09:45:59.103Z,100461.19
2023-02-01T09:48:31.673Z,100466.91
2023-02-01T09:51:00.274Z,100464.63
2023-02-01T09:53:30.512Z,100469.78
2023-02-01T09:55:58.201Z,100468.50
2023-02-01T09:58:29.797Z,100475.53
2023-02-01T10:00:56.327Z,100472.03
2023-02-01T10:03:20.354Z,100475.63
2023-02-01T10:06:23.943Z,100466.53
2023-02-01T10:09:10.507Z,100467.47
2023-02-01T10:11:51.751Z,100481.75
2023-02-01T10:14:32.206Z,100478.50
2023-02-01T10:17:04.470Z,100474.72
2023-02-01T10:19:43.477Z,100477.38
2023-02-01T10:22:12.115Z,100477.09
2023-02-01T10:24:48.732Z,100479.81
2023-02-01T10:27:19.920Z,100484.59
2023-02-01T10:29:47.018Z,100481.25
2023-02-01T10:32:17.823Z,100466.22
2023-02-01T10:34:42.381Z,100471.84
2023-02-01T10:37:22.684Z,100482.81
2023-02-01T10:39:47.604Z,100477.66
2023-02-01T10:42:11.675Z,100482.16
2023-02-01T10:44:45.384Z,100487.00
2023-02-01T10:47:11.864Z,100485.06
2023-02-01T10:49:43.124Z,100485.03
2023-02-01T10:52:18.691Z,100476.75
2023-02-01T10:54:43.119Z,100473.59
2023-02-01T10:57:11.036Z,100477.84
2023-02-01T10:59:37.390Z,100468.06
2023-02-01T11:02:03.669Z,100465.13
2023-02-01T11:04:28.857Z,100460.78
2023-02-01T11:07:08.579Z,100460.38
2023-02-01T11:09:34.213Z,100446.97
2023-02-01T11:12:01.071Z,100464.50
2023-02-01T11:14:36.363Z,100449.72
2023-02-01T11:17:02.493Z,100460.88
2023-02-01T11:19:26.257Z,100456.41
2023-02-01T11:21:52.755Z,100452.50
2023-02-01T11:24:25.561Z,100448.69
2023-02-01T11:26:50.923Z,100441.56
2023-02-01T11:29:19.494Z,100434.78
2023-02-01T11:31:44.100Z,100436.91
2023-02-01T11:34:11.496Z,100433.00
2023-02-01T11:36:38.486Z,100423.41
2023-02-01T11:39:23.606Z,100418.19
2023-02-01T11:42:03.808Z,100405.25
2023-02-01T11:44:35.477Z,100405.78
2023-02-01T11:47:20.384Z,100412.22
2023-02-01T11:49:44.226Z,100398.75
2023-02-01T11:52:19.988Z,100396.84
2023-02-01T11:55:03.913Z,100401.56
2023-02-01T11:57:47.745Z,100394.28
2023-02-01T12:00:53.076Z,100382.63
2023-02-01T12:04:07.427Z,100375.91
2023-02-01T12:06:44.241Z,100381.50
2023-02-01T12:09:48.393Z,100375.72
2023-02-01T12:12:21.858Z,100362.59
2023-02-01T12:15:07.101Z,100357.84
2023-02-01T12:17:57.899Z,100359.44
2023-02-01T12:20:43.588Z,100356.16
2023-02-01T12:23:23.448Z,100366.53
2023-02-01T12:26:05.811Z,100357.53
2023-02-01T12:29:17.826Z,100355.31
2023-02-01T12:32:01.461Z,100365.41
2023-02-01T12:34:57.029Z,100355.06
2023-02-01T12:37:35.123Z,100336.25
2023-02-01T12:40:30.999Z,100339.94
2023-02-01T12:43:02.770Z,100327.34
2023-02-01T12:45:34.179Z,100320.38
2023-02-01T12:48:05.051Z,100317.16
2023-02-01T12:50:34.907Z,100314.47
2023-02-01T12:53:09.439Z,100314.31
2023-02-01T12:55:39.055Z,100299.88
2023-02-01T12:58:15.299Z,100294.78
2023-02-01T13:00:42.956Z,100322.41
2023-02-01T13:03:16.314Z,100371.97
2023-02-01T13:05:51.092Z,100385.47
2023-02-01T13:08:20.337Z,100380.94
2023-02-01T13:10:49.145Z,100375.25
2023-02-01T13:13:21.561Z,100368.47
2023-02-01T13:15:50.761Z,100369.94
2023-02-01T13:18:21.065Z,100364.50
2023-02-01T13:20:52.941Z,100363.31
2023-02-01T13:23:27.501Z,100359.09
2023-02-01T13:25:53.626Z,100350.59
2023-02-01T13:28:22.435Z,100347.00
2023-02-01T13:31:45.913Z,100336.75
2023-02-01T13:35:17.077Z,100320.56
2023-02-01T13:38:12.072Z,100319.06
2023-02-01T13:40:45.355Z,100308.00
2023-02-01T13:43:14.947Z,100297.84
2023-02-01T13:45:46.132Z,100293.72
2023-02-01T13:48:22.094Z,100290.59
2023-02-01T13:50:55.531Z,100291.44
2023-02-01T13:53:25.738Z,100290.34
2023-02-01T13:55:58.111Z,100288.25
2023-02-01T13:58:24.615Z,100279.22
2023-02-01T14:00:50.075Z,100276.34
2023-02-01T14:03:23.209Z,100277.50
2023-02-01T14:06:41.959Z,100272.97
2023-02-01T14:09:20.666Z,100270.88
2023-02-01T14:11:47.394Z,100285.13
2023-02-01T14:14:48.102Z,100285.47
2023-02-01T14:17:39.379Z,100261.81
2023-02-01T14:20:46.880Z,100265.00
2023-02-01T14:23:19.104Z,100260.94
2023-02-01T14:25:43.509Z,100261.16
2023-02-01T14:28:15.269Z,100255.81
2023-02-01T14:30:39.057Z,100244.94
2023-02-01T14:33:21.036Z,100241.97
2023-02-01T14:35:44.791Z,100237.25
2023-02-01T14:38:12.351Z,100232.81
2023-02-01T14:40:37.606Z,100232.75
2023-02-01T14:43:01.191Z,100226.81
2023-02-01T14:45:52.996Z,100216.28
2023-02-01T14:48:47.056Z,100215.47
2023-02-01T14:51:14.100Z,100213.44
2023-02-01T14:53:38.626Z,100203.56
2023-02-01T14:56:10.695Z,100206.34
2023-02-01T14:58:45.163Z,100197.75
2023-02-01T15:01:21.015Z,100200.94
2023-02-01T15:03:53.716Z,100199.81
2023-02-01T15:06:39.424Z,100202.09
2023-02-01T15:09:07.035Z,100201.53
2023-02-01T15:11:32.704Z,100214.25
2023-02-01T15:13:58.146Z,100199.59
2023-02-01T15:16:23.193Z,100198.72
2023-02-01T15:18:47.037Z,100209.91
2023-02-01T15:21:27.902Z,100212.34
2023-02-01T15:24:13.305Z,100213.84
2023-02-01T15:26:38.418Z,100211.31
2023-02-01T15:29:02.239Z,100215.78
2023-02-01T15:31:37.970Z,100214.06
2023-02-01T15:34:01.760Z,100212.78
2023-02-01T15:36:28.529Z,100219.59
2023-02-01T15:39:26.783Z,100220.50
2023-02-01T15:41:53.942Z,100237.28
2023-02-01T15:44:24.587Z,100229.03
2023-02-01T15:46:51.563Z,100242.16
2023-02-01T15:49:25.364Z,100257.25
2023-02-01T15:51:50.359Z,100258.72
2023-02-01T15:54:20.974Z,100260.25
2023-02-01T15:56:49.867Z,100256.53
2023-02-01T15:59:19.461Z,100259.31
2023-02-01T16:01:43.470Z,100251.91
2023-02-01T16:04:20.188Z,100267.84
2023-02-01T16:06:51.623Z,100266.91
2023-02-01T16:09:17.619Z,100270.91
2023-02-01T16:11:56.555Z,100257.63
2023-02-01T16:14:20.224Z,100253.16
2023-02-01T16:16:43.971Z,100260.28
2023-02-01T16:19:07.620Z,100255.56
2023-02-01T16:21:31.284Z,100260.66
2023-02-01T16:23:55.555Z,100274.50
2023-02-01T16:26:19.619Z,100268.72
2023-02-01T16:28:44.744Z,100277.94
2023-02-01T16:31:17.999Z,100274.56
2023-02-01T16:33:41.701Z,100281.09
2023-02-01T16:36:06.785Z,100285.88
2023-02-01T16:38:30.688Z,100286.41
2023-02-01T16:40:54.319Z,100300.97
2023-02-01T16:43:20.734Z,100298.34
2023-02-01T16:45:48.877Z,100305.59
2023-02-01T16:48:21.265Z,100314.13
2023-02-01T16:50:52.434Z,100306.13
2023-02-01T16:53:18.943Z,100308.81
2023-02-01T16:55:44.480Z,100318.50
2023-02-01T16:58:08.389Z,100315.53
2023-02-01T17:00:37.653Z,100319.28
2023-02-01T17:03:02.773Z,100324.09
2023-02-01T17:05:26.790Z,100323.91
2023-02-01T17:07:50.949Z,100328.69
2023-02-01T17:10:33.481Z,100326.22
2023-02-01T17:12:58.651Z,100331.19
2023-02-01T17:15:22.505Z,100331.56
2023-02-01T17:17:46.609Z,100325.56
2023-02-01T17:20:22.758Z,100322.69
2023-02-01T17:22:46.445Z,100324.00
2023-02-01T17:25:17.166Z,100320.47
2023-02-01T17:27:42.042Z,100322.78
2023-02-01T17:30:07.100Z,100325.06
2023-02-01T17:32:30.783Z,100322.97
2023-02-01T17:34:54.696Z,100342.31
2023-02-01T17:37:26.928Z,100333.03
2023-02-01T17:39:56.126Z,100334.31
2023-02-01T17:42:19.692Z,100336.22
2023-02-01T17:44:43.307Z,100340.66
2023-02-01T17:47:06.913Z,100338.66
2023-02-01T17:49:30.626Z,100351.09
2023-02-01T17:51:54.307Z,100334.78
2023-02-01T17:54:20.169Z,100349.41
2023-02-01T17:56:43.865Z,100346.28
2023-02-01T17:59:07.715Z,100351.41
2023-02-01T18:01:31.657Z,100348.28
2023-02-01T18:03:55.348Z,100349.78
2023-02-01T18:06:21.297Z,100349.13
2023-02-01T18:08:45.947Z,100363.97
2023-02-01T18:11:15.936Z,100354.81
2023-02-01T18:13:39.570Z,100359.19
2023-02-01T18:16:04.611Z,100360.53
2023-02-01T18:18:29.023Z,100368.03
2023-02-01T18:20:52.863Z,100372.78
2023-02-01T18:23:20.671Z,100369.94
2023-02-01T18:25:44.256Z,100367.75
2023-02-01T18:28:09.372Z,100367.66
2023-02-01T18:30:35.729Z,100369.16
2023-02-01T18:32:59.742Z,100368.50
2023-02-01T18:35:26.538Z,100378.09
2023-02-01T18:37:51.822Z,100368.59
2023-02-01T18:40:18.303Z,100369.44
2023-02-01T18:42:41.957Z,100380.47
2023-02-01T18:45:10.629Z,100373.63
2023-02-01T18:47:34.259Z,100369.81
2023-02-01T18:49:57.832Z,100370.31
2023-02-01T18:52:21.483Z,100375.41
2023-02-01T18:54:58.905Z,100367.91
2023-02-01T18:57:23.934Z,100370.09
2023-02-01T18:59:47.609Z,100374.97
2023-02-01T19:02:14.967Z,100364.88
2023-02-01T19:04:38.586Z,100378.72
2023-02-01T19:07:02.250Z,100375.09
2023-02-01T19:09:25.954Z,100376.38
2023-02-01T19:11:49.635Z,100386.69
2023-02-01T19:14:13.306Z,100388.41
2023-02-01T19:16:39.799Z,100384.44
2023-02-01T19:19:04.880Z,100380.53
2023-02-01T19:21:28.543Z,100380.28
2023-02-01T19:23:52.111Z,100378.34
2023-02-01T19:26:18.438Z,100378.03
2023-02-01T19:28:44.732Z,100383.47
2023-02-01T19:31:10.051Z,100382.22
2023-02-01T19:33:33.715Z,100387.72
2023-02-01T19:36:01.411Z,100386.53
2023-02-01T19:38:25.070Z,100394.25
2023-02-01T19:40:50.708Z,100388.13
2023-02-01T19:43:14.299Z,100404.97
2023-02-01T19:45:37.970Z,100393.06
2023-02-01T19:48:03.339Z,100392.38
2023-02-01T19:50:27.097Z,100395.38
2023-02-01T19:52:52.136Z,100382.94
2023-02-01T19:55:16.075Z,100390.63
2023-02-01T19:57:39.812Z,100398.97
2023-02-01T20:00:03.920Z,100386.53
2023-02-01T20:02:28.693Z,100384.53
2023-02-01T20:04:52.416Z,100396.78
2023-02-01T20:07:15.990Z,100383.13
2023-02-01T20:09:42.259Z,100387.00
2023-02-01T20:12:07.049Z,100395.16
2023-02-01T20:14:31.153Z,100397.63
2023-02-01T20:16:54.739Z,100379.47
2023-02-01T20:19:18.753Z,100398.22
2023-02-01T20:21:42.992Z,100389.66
2023-02-01T20:24:08.045Z,100400.00
2023-02-01T20:26:34.581Z,100391.09
2023-02-01T20:28:58.332Z,100399.75
2023-02-01T20:31:21.992Z,100403.44
2023-02-01T20:33:45.664Z,100399.34
2023-02-01T20:36:10.543Z,100403.34
2023-02-01T20:38:34.303Z,100391.75
2023-02-01T20:41:04.391Z,100396.97
2023-02-01T20:43:29.468Z,100393.56
2023-02-01T20:45:53.076Z,100390.16
2023-02-01T20:48:16.784Z,100387.69
2023-02-01T20:50:40.684Z,100396.59
2023-02-01T20:53:06.024Z,100393.56
2023-02-01T20:55:29.686Z,100392.81
2023-02-01T20:57:54.433Z,100389.88
2023-02-01T21:00:22.540Z,100383.50
2023-02-01T21:02:46.227Z,100389.94
2023-02-01T21:05:11.141Z,100386.28
2023-02-01T21:07:34.905Z,100383.50
2023-02-01T21:09:58.509Z,100375.53
2023-02-01T21:12:22.172Z,100381.69
2023-02-01T21:14:45.772Z,100397.25
2023-02-01T21:17:10.830Z,100400.69
2023-02-01T21:19:43.080Z,100400.03
2023-02-01T21:22:06.909Z,100394.06
2023-02-01T21:24:30.514Z,100403.06
2023-02-01T21:26:54.228Z,100396.69
2023-02-01T21:29:18.155Z,100406.28
2023-02-01T21:31:43.211Z,100403.84
2023-02-01T21:34:09.230Z,100401.94
2023-02-01T21:36:35.866Z,100397.84
2023-02-01T21:39:03.704Z,100406.50
2023-02-01T21:41:44.435Z,100415.69
2023-02-01T21:44:08.331Z,100405.69
2023-02-01T21:46:32.043Z,100411.44
2023-02-01T21:49:04.345Z,100404.00
2023-02-01T21:51:32.180Z,100399.25
2023-02-01T21:53:56.244Z,100394.59
2023-02-01T21:56:20.009Z,100405.34
2023-02-01T21:58:43.621Z,100397.84
2023-02-01T22:01:07.282Z,100405.16
2023-02-01T22:03:30.990Z,100398.69
2023-02-01T22:05:54.709Z,100395.47
2023-02-01T22:08:20.401Z,100404.94
2023-02-01T22:10:44.161Z,100400.88
2023-02-01T22:13:07.851Z,100412.16
2023-02-01T22:15:31.557Z,100423.47
2023-02-01T22:17:55.182Z,100415.03
2023-02-01T22:20:19.570Z,100417.53
2023-02-01T22:22:43.260Z,100413.88
2023-02-01T22:25:10.262Z,100424.72
2023-02-01T22:28:30.486Z,100419.81
2023-02-01T22:30:18.126Z,100419.59
2023-02-01T22:32:41.780Z,100408.78
2023-02-01T22:35:05.971Z,100406.88
2023-02-01T22:37:29.547Z,100407.63
2023-02-01T22:39:55.085Z,100405.56
2023-02-01T22:42:20.063Z,100416.66
2023-02-01T22:44:45.436Z,100407.63
2023-02-01T22:47:09.582Z,100401.56
2023-02-01T22:49:33.333Z,100408.41
2023-02-01T22:51:59.215Z,100400.03
2023-02-01T22:54:23.395Z,100391.00
2023-02-01T22:56:47.157Z,100394.31
2023-02-01T22:59:15.132Z,100394.16
2023-02-01T23:01:38.744Z,100400.03
2023-02-01T23:04:04.592Z,100389.28
2023-02-01T23:06:28.940Z,100399.56
2023-02-01T23:08:56.863Z,100377.25
2023-02-01T23:11:20.445Z,100385.13
2023-02-01T23:13:44.077Z,100398.59
2023-02-01T23:16:11.292Z,100379.63
2023-02-01T23:18:35.007Z,100386.66
2023-02-01T23:20:58.605Z,100376.09
2023-02-01T23:23:22.485Z,100373.03
2023-02-01T23:25:51.970Z,100383.03
2023-02-01T23:28:16.433Z,100377.91
2023-02-01T23:30:40.036Z,100379.03
2023-02-01T23:33:07.113Z,100367.00
2023-02-01T23:35:30.744Z,100363.16
2023-02-01T23:37:54.417Z,100364.13
2023-02-01T23:40:18.247Z,100364.69
2023-02-01T23:43:02.048Z,100359.06
2023-02-01T23:45:26.021Z,100362.38
2023-02-01T23:47:49.735Z,100341.47
2023-02-01T23:50:14.749Z,100346.13
2023-02-01T23:52:38.336Z,100350.72
2023-02-01T23:55:01.974Z,100346.50
2023-02-01T23:57:25.660Z,100339.16
2023-02-01T23:59:49.291Z,100342.72
